Aérodrome :
LOGIN :

S'inscrire | Disclaimer

   EN    FR    IT 

 










Légende :    VFR   VFR Marginal   IFR   IFR Intensif   IFR Très Intensif
Visi : 
Plafond : 
>= 8 km
>= 3000ft
5 à 8 km
1000 à 3000 ft
1500m à 5 km
500 à 1000 ft
800 à 1500m
200 à 500 ft
< 800m
< 200 ft
Symboles :   Orages  Brouillard  Fortes neiges  Fortes précipitations  Vent > 20 kt
SIGMETs :   Divers  Orages  Givrage  Turbulence  Onde Orograph.  Cendres Volcan.







- Altitude de l'aérodrome : 458 ft
- Voir les cartes d'approche


LFSI - St-Dizier

DERNIER METAR :
  • 261730Z AUTO VRB02KT CAVOK 10/M05 Q1013

METARs EXPIRÉS :
  • 261700Z AUTO 02005KT CAVOK 10/M05 Q1012
  • 261630Z AUTO 03006KT CAVOK 10/M06 Q1012
  • 261600Z AUTO VRB03KT CAVOK 10/M06 Q1012
  • 261530Z AUTO VRB03G13KT CAVOK 10/M09 Q1012
  • 261500Z AUTO 03004KT 310V110 CAVOK 10/M10 Q1012
  • 261430Z AUTO 33009KT 290V360 CAVOK 10/M09 Q1013

TAF TAF LFSI
Valide du 26 à 15h jusqu'au 27 à 15h UTC


261400Z 2615/2715 34010KT CAVOK
TEMPO 2615/2620 4000 SHRA BKN030CB
TEMPO 2704/2707 3000 BR
TEMPO 2710/2715 4000 SHRA BKN030TCU
PROB40
TEMPO 2711/2715 VRB15G25KT 3000 TSRA BKN020CB
Pas de NOTAMs connus pour ce terrain.



MET'MAP, la Météo Aéronautique d'un coup d'oeil ! - Copyright ORBIFLY Décembre 2007 - Disclaimer

ORBIFLY MET'MAP TEAM :

Programmation & Développement : Alexandra Zaïnal
Conception & Développement : Baudouin d'Aumeries
Co-Programmation & Développement : Marc-Olivier Méhu
Soutien technique & logistique : Manuel Goepfert

Contact : metmap@orbifly.com




SOURCES & CREDITS :

   NOAA